createdAt,value
2017-05-01T00:00:39.028Z,12.66
2017-05-01T00:03:05.733Z,12.94
2017-05-01T00:05:32.440Z,14.68
2017-05-01T00:07:59.162Z,12.96
2017-05-01T00:10:25.900Z,14.97
2017-05-01T00:12:52.652Z,19.82
2017-05-01T00:15:19.398Z,15.38
2017-05-01T00:17:46.136Z,16.12
2017-05-01T00:20:12.878Z,16.76
2017-05-01T00:22:39.622Z,15.73
2017-05-01T00:25:06.354Z,15.34
2017-05-01T00:27:33.205Z,13.92
2017-05-01T00:30:00.074Z,14.00
2017-05-01T00:32:26.846Z,14.64
2017-05-01T00:34:53.560Z,13.14
2017-05-01T00:37:20.256Z,14.40
2017-05-01T00:39:47.002Z,15.12
2017-05-01T00:42:13.694Z,14.66
2017-05-01T00:44:40.417Z,15.12
2017-05-01T00:47:07.115Z,14.30
2017-05-01T00:49:33.809Z,16.82
2017-05-01T00:52:00.510Z,14.60
2017-05-01T00:54:27.232Z,13.40
2017-05-01T00:56:53.939Z,13.22
2017-05-01T00:59:20.637Z,14.34
2017-05-01T01:01:47.349Z,13.36
2017-05-01T01:04:14.066Z,13.70
2017-05-01T01:06:40.767Z,13.80
2017-05-01T01:09:13.206Z,14.58
2017-05-01T01:11:39.909Z,14.48
2017-05-01T01:14:06.614Z,16.22
2017-05-01T01:16:33.320Z,15.26
2017-05-01T01:19:00.056Z,16.10
2017-05-01T01:21:26.814Z,16.56
2017-05-01T01:23:53.545Z,16.48
2017-05-01T01:26:20.262Z,14.96
2017-05-01T01:28:46.987Z,16.45
2017-05-01T01:31:14.696Z,15.17
2017-05-01T01:33:41.437Z,15.72
2017-05-01T01:36:08.170Z,17.64
2017-05-01T01:38:34.876Z,16.40
2017-05-01T01:41:01.566Z,17.42
2017-05-01T01:43:28.283Z,16.14
2017-05-01T01:45:55.026Z,16.05
2017-05-01T01:48:21.791Z,15.42
2017-05-01T01:50:48.518Z,16.32
2017-05-01T01:53:15.287Z,16.52
2017-05-01T01:55:41.997Z,15.40
2017-05-01T01:58:08.726Z,16.02
2017-05-01T02:00:35.464Z,16.22
2017-05-01T02:03:02.162Z,16.92
2017-05-01T02:05:28.873Z,15.62
2017-05-01T02:07:55.593Z,17.00
2017-05-01T02:10:22.335Z,15.72
2017-05-01T02:12:49.251Z,16.12
2017-05-01T02:15:15.974Z,17.22
2017-05-01T02:17:42.672Z,15.08
2017-05-01T02:20:09.379Z,18.45
2017-05-01T02:22:36.095Z,18.48
2017-05-01T02:25:02.789Z,16.64
2017-05-01T02:27:29.503Z,17.15
2017-05-01T02:29:56.199Z,16.74
2017-05-01T02:32:22.951Z,17.03
2017-05-01T02:34:49.657Z,17.24
2017-05-01T02:37:16.369Z,16.23
2017-05-01T02:39:43.039Z,17.50
2017-05-01T02:42:09.742Z,17.83
2017-05-01T02:44:36.444Z,17.46
2017-05-01T02:47:03.118Z,17.50
2017-05-01T02:49:29.801Z,17.47
2017-05-01T02:51:56.500Z,17.12
2017-05-01T02:54:23.184Z,16.18
2017-05-01T02:56:49.852Z,17.16
2017-05-01T02:59:16.582Z,17.37
2017-05-01T03:01:43.267Z,17.47
2017-05-01T03:04:09.944Z,18.42
2017-05-01T03:06:36.654Z,16.52
2017-05-01T03:09:03.340Z,17.43
2017-05-01T03:11:30.016Z,17.92
2017-05-01T03:13:56.771Z,18.57
2017-05-01T03:16:23.465Z,17.43
2017-05-01T03:18:50.154Z,18.53
2017-05-01T03:21:16.859Z,18.92
2017-05-01T03:23:43.553Z,18.07
2017-05-01T03:26:10.245Z,18.68
2017-05-01T03:28:36.954Z,18.50
2017-05-01T03:31:03.625Z,20.20
2017-05-01T03:33:30.334Z,18.57
2017-05-01T03:35:57.042Z,23.88
2017-05-01T03:38:23.726Z,21.28
2017-05-01T03:40:50.410Z,19.55
2017-05-01T03:43:17.298Z,19.02
2017-05-01T03:45:44.002Z,19.95
2017-05-01T03:48:10.683Z,19.50
2017-05-01T03:50:37.389Z,18.28
2017-05-01T03:53:04.078Z,22.35
2017-05-01T03:55:30.756Z,20.20
2017-05-01T03:57:57.455Z,19.82
2017-05-01T04:00:24.154Z,20.57
2017-05-01T04:02:50.838Z,20.22
2017-05-01T04:05:17.545Z,20.25
2017-05-01T04:07:44.236Z,20.80
2017-05-01T04:10:10.931Z,20.47
2017-05-01T04:12:37.641Z,19.72
2017-05-01T04:15:04.333Z,19.78
2017-05-01T04:17:31.019Z,17.37
2017-05-01T04:19:57.969Z,17.94
2017-05-01T04:22:24.661Z,18.95
2017-05-01T04:24:51.382Z,18.52
2017-05-01T04:27:18.081Z,20.92
2017-05-01T04:29:44.756Z,20.75
2017-05-01T04:32:11.433Z,20.58
2017-05-01T04:34:38.165Z,21.38
2017-05-01T04:37:04.869Z,20.80
2017-05-01T04:39:31.558Z,19.87
2017-05-01T04:41:58.276Z,19.32
2017-05-01T04:44:24.999Z,19.78
2017-05-01T04:46:51.720Z,24.05
2017-05-01T04:49:18.434Z,20.70
2017-05-01T04:51:45.121Z,19.48
2017-05-01T04:54:11.817Z,23.25
2017-05-01T04:56:38.525Z,21.68
2017-05-01T04:59:05.227Z,19.62
2017-05-01T05:01:31.907Z,18.42
2017-05-01T05:03:58.804Z,19.05
2017-05-01T05:06:25.488Z,19.95
2017-05-01T05:08:52.175Z,20.28
2017-05-01T05:11:18.884Z,20.55
2017-05-01T05:13:45.560Z,20.80
2017-05-01T05:16:12.245Z,21.02
2017-05-01T05:18:38.961Z,20.77
2017-05-01T05:21:05.634Z,20.88
2017-05-01T05:23:32.319Z,22.67
2017-05-01T05:25:59.032Z,22.92
2017-05-01T05:28:25.706Z,21.26
2017-05-01T05:30:52.434Z,26.56
2017-05-01T05:33:19.135Z,21.08
2017-05-01T05:35:45.821Z,21.82
2017-05-01T05:38:12.489Z,20.06
2017-05-01T05:40:39.203Z,21.92
2017-05-01T05:43:05.876Z,21.40
2017-05-01T05:45:32.570Z,20.98
2017-05-01T05:47:59.259Z,21.32
2017-05-01T05:50:25.949Z,20.90
2017-05-01T05:52:52.619Z,21.60
2017-05-01T05:55:19.335Z,21.70
2017-05-01T05:57:46.005Z,22.38
2017-05-01T06:00:12.697Z,21.54
2017-05-01T06:02:39.400Z,23.32
2017-05-01T06:05:06.081Z,23.70
2017-05-01T06:07:32.752Z,22.92
2017-05-01T06:09:59.467Z,24.36
2017-05-01T06:12:26.141Z,22.34
2017-05-01T06:14:52.832Z,23.20
2017-05-01T06:17:19.540Z,23.46
2017-05-01T06:19:46.215Z,23.54
2017-05-01T06:22:12.889Z,25.20
2017-05-01T06:24:39.578Z,22.94
2017-05-01T06:27:06.249Z,24.40
2017-05-01T06:29:32.924Z,24.44
2017-05-01T06:31:59.624Z,26.96
2017-05-01T06:34:26.305Z,23.32
2017-05-01T06:36:52.982Z,24.22
2017-05-01T06:39:19.689Z,24.40
2017-05-01T06:41:46.368Z,24.36
2017-05-01T06:44:13.045Z,25.10
2017-05-01T06:46:39.794Z,24.80
2017-05-01T06:49:06.482Z,24.38
2017-05-01T06:51:33.153Z,25.26
2017-05-01T06:53:59.859Z,24.50
2017-05-01T06:56:26.602Z,25.80
2017-05-01T06:58:53.275Z,24.68
2017-05-01T07:01:20.018Z,25.32
2017-05-01T07:03:46.690Z,24.42
2017-05-01T07:06:13.376Z,29.40
2017-05-01T07:08:40.085Z,24.66
2017-05-01T07:11:06.760Z,24.52
2017-05-01T07:13:33.432Z,24.98
2017-05-01T07:16:00.132Z,24.60
2017-05-01T07:18:26.818Z,25.64
2017-05-01T07:20:53.493Z,24.24
2017-05-01T07:23:20.188Z,24.68
2017-05-01T07:25:46.865Z,26.06
2017-05-01T07:28:13.544Z,24.54
2017-05-01T07:30:40.267Z,25.70
2017-05-01T07:33:06.938Z,24.98
2017-05-01T07:35:33.621Z,24.62
2017-05-01T07:38:00.302Z,25.38
2017-05-01T07:40:26.970Z,22.60
2017-05-01T07:42:53.640Z,25.48
2017-05-01T07:45:20.358Z,22.56
2017-05-01T07:47:47.033Z,24.38
2017-05-01T07:50:13.707Z,24.28
2017-05-01T07:52:40.414Z,24.70
2017-05-01T07:55:07.078Z,26.90
2017-05-01T07:57:33.768Z,23.50
2017-05-01T08:00:00.457Z,23.72
2017-05-01T08:02:27.149Z,24.12
2017-05-01T08:04:53.821Z,24.30
2017-05-01T08:07:20.520Z,23.92
2017-05-01T08:09:47.192Z,23.32
2017-05-01T08:12:14.310Z,24.18
2017-05-01T08:14:41.026Z,24.24
2017-05-01T08:17:07.699Z,24.80
2017-05-01T08:19:34.376Z,23.60
2017-05-01T08:22:01.135Z,22.84
2017-05-01T08:24:27.811Z,23.98
2017-05-01T08:26:54.477Z,23.10
2017-05-01T08:29:21.225Z,21.66
2017-05-01T08:31:47.901Z,22.68
2017-05-01T08:34:14.574Z,22.72
2017-05-01T08:36:41.288Z,22.70
2017-05-01T08:39:07.967Z,21.42
2017-05-01T08:41:34.661Z,21.38
2017-05-01T08:44:01.369Z,22.28
2017-05-01T08:46:28.062Z,29.80
2017-05-01T08:48:54.734Z,21.76
2017-05-01T08:51:21.476Z,21.64
2017-05-01T08:53:48.178Z,21.76
2017-05-01T08:56:14.850Z,21.28
2017-05-01T08:58:41.552Z,20.66
2017-05-01T09:01:08.221Z,21.48
2017-05-01T09:03:34.900Z,21.18
2017-05-01T09:06:01.600Z,19.22
2017-05-01T09:08:28.278Z,21.42
2017-05-01T09:10:54.954Z,18.86
2017-05-01T09:13:21.661Z,18.76
2017-05-01T09:15:48.329Z,19.08
2017-05-01T09:18:15.002Z,19.34
2017-05-01T09:20:41.686Z,16.52
2017-05-01T09:23:08.371Z,14.74
2017-05-01T09:25:35.044Z,17.22
2017-05-01T09:28:01.789Z,14.66
2017-05-01T09:30:28.466Z,14.28
2017-05-01T09:32:55.137Z,14.00
2017-05-01T09:35:21.840Z,18.38
2017-05-01T09:37:48.520Z,15.22
2017-05-01T09:40:15.205Z,14.90
2017-05-01T09:42:41.900Z,16.56
2017-05-01T09:45:08.571Z,14.64
2017-05-01T09:47:35.238Z,16.74
2017-05-01T09:50:01.936Z,15.40
2017-05-01T09:52:28.610Z,16.32
2017-05-01T09:54:55.277Z,14.52
2017-05-01T09:57:21.981Z,15.30
2017-05-01T09:59:48.657Z,16.18
2017-05-01T10:02:15.334Z,17.32
2017-05-01T10:04:43.098Z,16.24
2017-05-01T10:07:09.830Z,15.16
2017-05-01T10:09:37.349Z,15.78
2017-05-01T10:12:04.953Z,16.02
2017-05-01T10:14:31.648Z,14.26
2017-05-01T10:16:58.323Z,16.34
2017-05-01T10:19:25.062Z,16.06
2017-05-01T10:21:51.748Z,16.20
2017-05-01T10:24:18.417Z,16.30
2017-05-01T10:26:45.151Z,15.34
2017-05-01T10:29:11.823Z,14.58
2017-05-01T10:31:38.510Z,16.30
2017-05-01T10:34:06.566Z,16.86
2017-05-01T10:36:33.249Z,15.02
2017-05-01T10:38:59.962Z,15.56
2017-05-01T10:41:26.636Z,16.72
2017-05-01T10:43:53.742Z,19.24
2017-05-01T10:46:20.516Z,16.00
2017-05-01T10:48:47.184Z,18.80
2017-05-01T10:51:13.860Z,15.74
2017-05-01T10:53:40.572Z,17.08
2017-05-01T10:56:07.243Z,17.42
2017-05-01T10:58:33.911Z,17.30
2017-05-01T11:01:00.605Z,18.14
2017-05-01T11:03:27.286Z,17.48
2017-05-01T11:05:53.958Z,16.48
2017-05-01T11:08:20.654Z,17.20
2017-05-01T11:10:47.324Z,17.20
2017-05-01T11:13:14.016Z,18.68
2017-05-01T11:15:40.705Z,16.80
2017-05-01T11:18:07.381Z,18.48
2017-05-01T11:20:34.062Z,16.92
2017-05-01T11:23:00.756Z,20.28
2017-05-01T11:25:27.528Z,17.58
2017-05-01T11:27:54.205Z,18.90
2017-05-01T11:30:20.917Z,17.82
2017-05-01T11:32:47.581Z,18.42
2017-05-01T11:35:14.266Z,17.00
2017-05-01T11:37:40.977Z,19.06
2017-05-01T11:40:07.660Z,17.42
2017-05-01T11:42:34.337Z,17.46
2017-05-01T11:45:01.037Z,16.52
2017-05-01T11:47:27.717Z,17.76
2017-05-01T11:49:54.390Z,19.26
2017-05-01T11:52:21.084Z,18.24
2017-05-01T11:54:47.889Z,20.04
2017-05-01T11:57:14.567Z,20.44
2017-05-01T11:59:41.485Z,18.96
2017-05-01T12:02:08.153Z,20.68
2017-05-01T12:04:34.834Z,18.92
2017-05-01T12:07:01.559Z,19.94
2017-05-01T12:09:28.233Z,19.12
2017-05-01T12:11:54.900Z,17.28
2017-05-01T12:14:21.621Z,17.44
2017-05-01T12:16:48.341Z,18.36
2017-05-01T12:19:15.013Z,17.80
2017-05-01T12:21:41.701Z,17.42
2017-05-01T12:24:08.375Z,17.90
2017-05-01T12:26:35.051Z,18.36
2017-05-01T12:29:01.761Z,18.58
2017-05-01T12:31:29.403Z,18.50
2017-05-01T12:33:56.080Z,17.52
2017-05-01T12:36:22.799Z,18.20
2017-05-01T12:38:49.501Z,16.54
2017-05-01T12:41:16.168Z,19.82
2017-05-01T12:43:42.891Z,20.52
2017-05-01T12:46:09.570Z,20.42
2017-05-01T12:48:37.183Z,19.40
2017-05-01T12:51:03.871Z,20.58
2017-05-01T12:53:30.547Z,19.46
2017-05-01T12:55:57.221Z,20.24
2017-05-01T12:58:23.922Z,20.42
2017-05-01T13:00:50.597Z,20.54
2017-05-01T13:03:17.266Z,18.48
2017-05-01T13:05:44.904Z,19.38
2017-05-01T13:08:11.573Z,19.80
2017-05-01T13:10:38.240Z,20.10
2017-05-01T13:13:05.936Z,19.96
2017-05-01T13:15:32.612Z,18.82
2017-05-01T13:17:59.298Z,18.58
2017-05-01T13:20:26.006Z,21.20
2017-05-01T13:22:52.677Z,18.24
2017-05-01T13:25:19.351Z,18.90
2017-05-01T13:27:46.077Z,21.04
2017-05-01T13:30:12.749Z,20.76
2017-05-01T13:32:39.433Z,18.78
2017-05-01T13:35:06.129Z,18.92
2017-05-01T13:37:32.824Z,18.20
2017-05-01T13:39:59.492Z,18.00
2017-05-01T13:42:26.309Z,17.20
2017-05-01T13:44:52.984Z,18.44
2017-05-01T13:47:19.666Z,17.78
2017-05-01T13:49:46.465Z,18.96
2017-05-01T13:52:13.149Z,16.94
2017-05-01T13:54:39.818Z,17.60
2017-05-01T13:57:06.518Z,17.92
2017-05-01T13:59:33.192Z,17.88
2017-05-01T14:01:59.867Z,18.44
2017-05-01T14:04:26.579Z,17.14
2017-05-01T14:06:53.253Z,18.28
2017-05-01T14:09:19.921Z,17.36
2017-05-01T14:11:46.613Z,17.80
2017-05-01T14:14:13.294Z,17.70
2017-05-01T14:16:40.235Z,18.70
2017-05-01T14:19:06.932Z,17.38
2017-05-01T14:21:33.613Z,17.30
2017-05-01T14:24:00.295Z,15.46
2017-05-01T14:26:26.987Z,17.06
2017-05-01T14:28:53.654Z,17.74
2017-05-01T14:31:20.325Z,17.14
2017-05-01T14:33:47.030Z,17.34
2017-05-01T14:36:13.712Z,16.06
2017-05-01T14:38:40.389Z,18.40
2017-05-01T14:41:07.114Z,16.00
2017-05-01T14:43:33.788Z,16.22
2017-05-01T14:46:00.464Z,17.28
2017-05-01T14:48:27.186Z,16.48
2017-05-01T14:50:53.882Z,19.14
2017-05-01T14:53:20.556Z,18.44
2017-05-01T14:55:47.257Z,18.64
2017-05-01T14:58:14.937Z,18.92
2017-05-01T15:00:41.621Z,18.76
2017-05-01T15:03:08.328Z,19.52
2017-05-01T15:05:35.010Z,19.36
2017-05-01T15:08:02.597Z,18.64
2017-05-01T15:10:29.289Z,18.46
2017-05-01T15:12:55.985Z,18.28
2017-05-01T15:15:22.659Z,17.58
2017-05-01T15:17:49.655Z,18.00
2017-05-01T15:20:16.323Z,19.80
2017-05-01T15:22:42.994Z,18.62
2017-05-01T15:25:09.751Z,19.50
2017-05-01T15:27:36.432Z,18.30
2017-05-01T15:30:03.111Z,18.42
2017-05-01T15:32:29.860Z,18.52
2017-05-01T15:34:56.549Z,19.10
2017-05-01T15:37:23.221Z,18.22
2017-05-01T15:39:49.940Z,17.76
2017-05-01T15:42:16.609Z,18.37
2017-05-01T15:44:43.297Z,17.70
2017-05-01T15:47:09.996Z,18.65
2017-05-01T15:49:36.683Z,18.48
2017-05-01T15:52:03.362Z,18.22
2017-05-01T15:54:30.247Z,17.54
2017-05-01T15:56:56.926Z,18.76
2017-05-01T15:59:23.599Z,18.26
2017-05-01T16:01:50.299Z,20.02
2017-05-01T16:04:17.087Z,19.72
2017-05-01T16:06:43.777Z,17.98
2017-05-01T16:09:10.482Z,19.70
2017-05-01T16:11:37.201Z,19.16
2017-05-01T16:14:03.922Z,18.26
2017-05-01T16:16:30.727Z,19.32
2017-05-01T16:18:57.440Z,18.68
2017-05-01T16:21:24.132Z,18.84
2017-05-01T16:23:51.123Z,18.32
2017-05-01T16:26:17.838Z,18.96
2017-05-01T16:28:44.546Z,17.76
2017-05-01T16:31:11.269Z,18.28
2017-05-01T16:33:38.022Z,17.54
2017-05-01T16:36:04.725Z,18.64
2017-05-01T16:38:31.438Z,18.68
2017-05-01T16:40:58.227Z,17.94
2017-05-01T16:43:24.930Z,17.56
2017-05-01T16:45:51.802Z,18.72
2017-05-01T16:48:18.500Z,17.54
2017-05-01T16:50:45.417Z,17.94
2017-05-01T16:53:12.130Z,18.38
2017-05-01T16:55:38.831Z,19.46
2017-05-01T16:58:05.530Z,17.46
2017-05-01T17:00:32.248Z,18.72
2017-05-01T17:02:58.969Z,18.76
2017-05-01T17:05:25.669Z,17.18
2017-05-01T17:07:52.446Z,17.60
2017-05-01T17:10:19.148Z,17.60
2017-05-01T17:12:45.861Z,18.90
2017-05-01T17:15:12.562Z,19.16
2017-05-01T17:17:39.251Z,18.24
2017-05-01T17:20:05.952Z,17.90
2017-05-01T17:22:32.650Z,18.14
2017-05-01T17:24:59.373Z,18.62
2017-05-01T17:27:26.458Z,18.40
2017-05-01T17:29:53.159Z,17.70
2017-05-01T17:32:19.891Z,18.56
2017-05-01T17:34:46.591Z,18.50
2017-05-01T17:37:13.373Z,19.32
2017-05-01T17:39:40.139Z,18.42
2017-05-01T17:42:06.853Z,18.62
2017-05-01T17:44:33.590Z,18.24
2017-05-01T17:47:00.346Z,20.38
2017-05-01T17:49:27.073Z,21.46
2017-05-01T17:51:53.772Z,19.28
2017-05-01T17:54:20.473Z,19.02
2017-05-01T17:56:47.182Z,20.12
2017-05-01T17:59:13.876Z,20.84
2017-05-01T18:01:40.602Z,21.54
2017-05-01T18:04:07.446Z,20.48
2017-05-01T18:06:34.150Z,23.00
2017-05-01T18:09:01.044Z,21.06
2017-05-01T18:11:27.766Z,19.40
2017-05-01T18:13:54.472Z,19.60
2017-05-01T18:16:21.375Z,20.08
2017-05-01T18:18:48.075Z,19.32
2017-05-01T18:21:14.806Z,19.48
2017-05-01T18:23:41.521Z,19.80
2017-05-01T18:26:08.251Z,18.86
2017-05-01T18:28:34.928Z,20.48
2017-05-01T18:31:01.671Z,19.50
2017-05-01T18:33:28.375Z,18.22
2017-05-01T18:35:55.107Z,19.96
2017-05-01T18:38:21.819Z,19.30
2017-05-01T18:40:48.512Z,20.22
2017-05-01T18:43:15.254Z,19.22
2017-05-01T18:45:41.935Z,19.64
2017-05-01T18:48:08.619Z,19.44
2017-05-01T18:50:35.584Z,20.48
2017-05-01T18:53:02.268Z,20.08
2017-05-01T18:55:28.947Z,21.88
2017-05-01T18:57:55.640Z,20.36
2017-05-01T19:00:22.299Z,20.74
2017-05-01T19:02:49.316Z,19.42
2017-05-01T19:05:16.007Z,20.28
2017-05-01T19:07:42.694Z,20.24
2017-05-01T19:10:09.391Z,20.36
2017-05-01T19:12:36.106Z,20.74
2017-05-01T19:15:02.780Z,22.14
2017-05-01T19:17:29.496Z,21.84
2017-05-01T19:19:56.188Z,19.18
2017-05-01T19:22:22.864Z,21.70
2017-05-01T19:24:49.547Z,20.20
2017-05-01T19:27:16.255Z,20.04
2017-05-01T19:29:42.936Z,20.58
2017-05-01T19:32:09.635Z,20.02
2017-05-01T19:34:36.336Z,21.92
2017-05-01T19:37:03.036Z,20.08
2017-05-01T19:39:29.724Z,20.68
2017-05-01T19:41:56.424Z,19.70
2017-05-01T19:44:23.131Z,19.68
2017-05-01T19:46:49.931Z,20.82
2017-05-01T19:49:16.691Z,19.16
2017-05-01T19:51:43.408Z,19.86
2017-05-01T19:54:10.095Z,19.90
2017-05-01T19:56:36.779Z,19.34
2017-05-01T19:59:03.476Z,20.24
2017-05-01T20:01:30.160Z,19.10
2017-05-01T20:03:56.865Z,18.74
2017-05-01T20:06:23.555Z,19.88
2017-05-01T20:08:50.252Z,20.90
2017-05-01T20:11:16.934Z,21.26
2017-05-01T20:13:43.624Z,20.26
2017-05-01T20:16:10.379Z,21.24
2017-05-01T20:18:37.086Z,20.60
2017-05-01T20:21:03.980Z,20.38
2017-05-01T20:23:33.541Z,20.52
2017-05-01T20:26:00.247Z,22.20
2017-05-01T20:28:26.943Z,21.28
2017-05-01T20:30:53.680Z,19.98
2017-05-01T20:33:20.368Z,19.22
2017-05-01T20:35:47.055Z,19.72
2017-05-01T20:38:13.746Z,19.34
2017-05-01T20:40:40.419Z,24.92
2017-05-01T20:43:07.087Z,19.64
2017-05-01T20:45:33.812Z,21.22
2017-05-01T20:48:00.491Z,21.04
2017-05-01T20:50:27.182Z,21.74
2017-05-01T20:52:53.856Z,21.34
2017-05-01T20:55:20.555Z,20.24
2017-05-01T20:57:47.242Z,19.26
2017-05-01T21:00:13.923Z,19.64
2017-05-01T21:02:40.606Z,21.90
2017-05-01T21:05:07.327Z,21.06
2017-05-01T21:07:34.045Z,20.06
2017-05-01T21:10:00.727Z,20.50
2017-05-01T21:12:27.420Z,20.64
2017-05-01T21:14:54.128Z,20.80
2017-05-01T21:17:21.156Z,19.92
2017-05-01T21:19:47.895Z,20.82
2017-05-01T21:22:14.684Z,19.04
2017-05-01T21:24:41.370Z,20.58
2017-05-01T21:27:08.315Z,21.92
2017-05-01T21:29:35.022Z,21.60
2017-05-01T21:32:01.713Z,22.24
2017-05-01T21:34:28.402Z,21.30
2017-05-01T21:36:55.096Z,20.36
2017-05-01T21:39:21.823Z,22.18
2017-05-01T21:41:48.503Z,22.30
2017-05-01T21:44:15.199Z,22.80
2017-05-01T21:46:41.883Z,20.82
2017-05-01T21:49:08.571Z,22.96
2017-05-01T21:51:35.266Z,23.32
2017-05-01T21:54:03.175Z,23.70
2017-05-01T21:56:29.871Z,21.74
2017-05-01T21:58:56.559Z,20.92
2017-05-01T22:01:23.250Z,22.24
2017-05-01T22:03:49.938Z,23.90
2017-05-01T22:06:16.624Z,22.44
2017-05-01T22:08:43.312Z,22.34
2017-05-01T22:11:10.003Z,22.66
2017-05-01T22:13:36.739Z,22.04
2017-05-01T22:16:03.712Z,21.76
2017-05-01T22:18:30.399Z,21.10
2017-05-01T22:20:57.171Z,21.20
2017-05-01T22:23:23.937Z,24.08
2017-05-01T22:25:50.644Z,21.96
2017-05-01T22:28:17.340Z,24.26
2017-05-01T22:30:44.050Z,22.92
2017-05-01T22:33:10.719Z,23.22
2017-05-01T22:35:37.562Z,23.66
2017-05-01T22:38:04.233Z,23.60
2017-05-01T22:40:30.897Z,24.34
2017-05-01T22:42:57.627Z,25.42
2017-05-01T22:45:24.308Z,25.12
2017-05-01T22:47:51.039Z,26.02
2017-05-01T22:50:17.867Z,26.08
2017-05-01T22:52:44.614Z,27.76
2017-05-01T22:55:12.341Z,26.60
2017-05-01T22:57:39.039Z,29.32
2017-05-01T23:00:05.721Z,27.48
2017-05-01T23:02:32.453Z,30.10
2017-05-01T23:04:59.143Z,31.26
2017-05-01T23:07:26.125Z,31.24
2017-05-01T23:09:52.821Z,30.27
2017-05-01T23:12:19.540Z,32.14
2017-05-01T23:14:46.273Z,33.40
2017-05-01T23:17:12.982Z,33.00
2017-05-01T23:19:39.684Z,34.22
2017-05-01T23:22:06.398Z,31.44
2017-05-01T23:24:33.090Z,35.02
2017-05-01T23:26:59.773Z,38.10
2017-05-01T23:29:26.504Z,36.14
2017-05-01T23:31:53.213Z,32.60
2017-05-01T23:34:19.926Z,31.84
2017-05-01T23:36:46.647Z,35.18
2017-05-01T23:39:13.349Z,34.56
2017-05-01T23:41:40.066Z,33.66
2017-05-01T23:44:06.758Z,34.88
2017-05-01T23:46:33.447Z,37.14
2017-05-01T23:49:00.160Z,36.98
2017-05-01T23:51:27.188Z,35.56
2017-05-01T23:53:53.914Z,33.64
2017-05-01T23:56:20.620Z,34.56
2017-05-01T23:58:47.332Z,36.04
